createdAt,value
2019-02-06T00:00:55.705Z,18.02
2019-02-06T00:03:27.988Z,18.03
2019-02-06T00:06:00.141Z,18.02
2019-02-06T00:08:32.504Z,18.03
2019-02-06T00:11:05.291Z,18.03
2019-02-06T00:13:38.368Z,18.02
2019-02-06T00:16:10.618Z,18.02
2019-02-06T00:18:42.856Z,18.02
2019-02-06T00:21:15.160Z,18.03
2019-02-06T00:23:47.631Z,18.01
2019-02-06T00:26:20.273Z,18.00
2019-02-06T00:28:52.665Z,17.98
2019-02-06T00:31:24.748Z,17.98
2019-02-06T00:33:57.004Z,17.97
2019-02-06T00:36:28.980Z,18.00
2019-02-06T00:39:01.334Z,17.97
2019-02-06T00:41:34.777Z,17.98
2019-02-06T00:44:07.712Z,17.98
2019-02-06T00:46:39.921Z,17.99
2019-02-06T00:49:13.343Z,17.98
2019-02-06T00:51:45.587Z,17.99
2019-02-06T00:54:18.000Z,17.99
2019-02-06T00:56:50.114Z,17.97
2019-02-06T00:59:22.512Z,17.98
2019-02-06T01:01:54.867Z,17.98
2019-02-06T01:04:26.980Z,17.99
2019-02-06T01:06:59.333Z,17.96
2019-02-06T01:09:31.523Z,17.97
2019-02-06T01:12:03.762Z,17.97
2019-02-06T01:14:37.248Z,17.98
2019-02-06T01:17:09.641Z,17.98
2019-02-06T01:19:41.789Z,17.99
2019-02-06T01:22:13.997Z,17.98
2019-02-06T01:24:46.391Z,17.97
2019-02-06T01:27:18.836Z,17.96
2019-02-06T01:29:51.135Z,17.96
2019-02-06T01:32:23.324Z,17.97
2019-02-06T01:34:55.719Z,17.98
2019-02-06T01:37:27.857Z,17.97
2019-02-06T01:40:00.338Z,17.96
2019-02-06T01:42:32.636Z,17.96
2019-02-06T01:45:05.119Z,17.97
2019-02-06T01:47:37.486Z,17.95
2019-02-06T01:50:10.798Z,17.96
2019-02-06T01:52:43.046Z,17.96
2019-02-06T01:55:15.038Z,17.96
2019-02-06T01:57:47.261Z,17.96
2019-02-06T02:00:20.723Z,17.94
2019-02-06T02:02:52.730Z,17.93
2019-02-06T02:05:25.758Z,17.93
2019-02-06T02:07:58.006Z,17.95
2019-02-06T02:10:30.125Z,17.97
2019-02-06T02:13:02.363Z,17.97
2019-02-06T02:15:34.579Z,17.98
2019-02-06T02:18:06.940Z,17.98
2019-02-06T02:20:38.995Z,17.97
2019-02-06T02:23:11.227Z,17.97
2019-02-06T02:25:43.475Z,17.94
2019-02-06T02:28:15.974Z,17.94
2019-02-06T02:30:53.843Z,17.96
2019-02-06T02:33:26.037Z,17.95
2019-02-06T02:35:58.155Z,17.95
2019-02-06T02:38:30.435Z,17.96
2019-02-06T02:41:02.574Z,17.94
2019-02-06T02:43:34.842Z,17.93
2019-02-06T02:46:07.121Z,17.94
2019-02-06T02:48:39.479Z,17.94
2019-02-06T02:51:11.640Z,17.91
2019-02-06T02:53:44.850Z,17.93
2019-02-06T02:56:17.049Z,17.93
2019-02-06T02:58:49.397Z,17.94
2019-02-06T03:01:29.527Z,17.96
2019-02-06T03:04:29.259Z,17.96
2019-02-06T03:07:01.423Z,17.95
2019-02-06T03:09:33.718Z,17.95
2019-02-06T03:12:05.993Z,17.95
2019-02-06T03:14:38.179Z,17.95
2019-02-06T03:17:11.358Z,17.95
2019-02-06T03:19:43.681Z,17.95
2019-02-06T03:22:15.804Z,17.93
2019-02-06T03:24:48.061Z,17.93
2019-02-06T03:27:20.220Z,17.92
2019-02-06T03:29:52.479Z,17.93
2019-02-06T03:32:24.875Z,17.91
2019-02-06T03:34:58.518Z,17.90
2019-02-06T03:37:30.800Z,17.89
2019-02-06T03:40:02.976Z,17.93
2019-02-06T03:42:35.230Z,17.91
2019-02-06T03:45:07.963Z,17.91
2019-02-06T03:47:41.929Z,17.87
2019-02-06T03:50:15.008Z,17.90
2019-02-06T03:52:47.172Z,17.88
2019-02-06T03:55:20.545Z,17.88
2019-02-06T03:57:52.877Z,17.87
2019-02-06T04:00:25.014Z,17.87
2019-02-06T04:02:57.389Z,17.85
2019-02-06T04:05:29.553Z,17.84
2019-02-06T04:08:01.967Z,17.86
2019-02-06T04:10:35.086Z,17.85
2019-02-06T04:13:07.158Z,17.82
2019-02-06T04:15:39.470Z,17.82
2019-02-06T04:18:11.757Z,17.82
2019-02-06T04:20:44.198Z,17.82
2019-02-06T04:23:19.436Z,17.82
2019-02-06T04:25:52.925Z,17.83
2019-02-06T04:28:25.176Z,17.83
2019-02-06T04:30:57.498Z,17.81
2019-02-06T04:33:29.830Z,17.82
2019-02-06T04:36:02.216Z,17.81
2019-02-06T04:38:34.345Z,17.84
2019-02-06T04:41:06.878Z,17.80
2019-02-06T04:43:40.136Z,17.80
2019-02-06T04:46:12.645Z,17.80
2019-02-06T04:48:44.839Z,17.78
2019-02-06T04:51:17.401Z,17.78
2019-02-06T04:53:49.726Z,17.78
2019-02-06T04:56:25.720Z,17.78
2019-02-06T04:58:58.432Z,17.78
2019-02-06T05:01:30.675Z,17.77
2019-02-06T05:04:03.102Z,17.75
2019-02-06T05:06:36.481Z,17.77
2019-02-06T05:09:09.983Z,17.78
2019-02-06T05:11:42.376Z,17.78
2019-02-06T05:14:14.875Z,17.82
2019-02-06T05:16:48.068Z,17.80
2019-02-06T05:19:20.376Z,17.97
2019-02-06T05:21:52.606Z,18.01
2019-02-06T05:24:26.181Z,18.04
2019-02-06T05:26:58.373Z,18.03
2019-02-06T05:29:30.608Z,18.18
2019-02-06T05:32:02.673Z,18.19
2019-02-06T05:34:34.919Z,18.20
2019-02-06T05:37:07.699Z,18.15
2019-02-06T05:39:39.901Z,18.19
2019-02-06T05:42:12.076Z,18.18
2019-02-06T05:44:44.285Z,18.06
2019-02-06T05:47:16.621Z,17.95
2019-02-06T05:49:48.884Z,17.88
2019-02-06T05:52:21.033Z,17.86
2019-02-06T05:54:53.182Z,17.84
2019-02-06T05:57:25.431Z,17.84
2019-02-06T05:59:57.451Z,17.81
2019-02-06T06:02:29.690Z,17.81
2019-02-06T06:05:01.836Z,17.81
2019-02-06T06:07:44.779Z,17.81
2019-02-06T06:10:10.242Z,17.81
2019-02-06T06:12:42.479Z,17.80
2019-02-06T06:15:16.201Z,17.79
2019-02-06T06:17:51.112Z,17.80
2019-02-06T06:20:23.238Z,17.79
2019-02-06T06:22:55.669Z,17.79
2019-02-06T06:25:27.817Z,17.79
2019-02-06T06:28:00.306Z,17.80
2019-02-06T06:30:32.640Z,17.83
2019-02-06T06:33:04.649Z,17.83
2019-02-06T06:35:36.905Z,17.85
2019-02-06T06:38:09.323Z,17.87
2019-02-06T06:40:41.483Z,17.87
2019-02-06T06:43:16.369Z,17.84
2019-02-06T06:45:47.557Z,17.82
2019-02-06T06:48:19.859Z,17.82
2019-02-06T06:50:52.270Z,17.86
2019-02-06T06:53:24.486Z,17.91
2019-02-06T06:55:56.675Z,17.87
2019-02-06T06:58:28.875Z,17.84
2019-02-06T07:01:03.583Z,17.84
2019-02-06T07:03:35.272Z,17.86
2019-02-06T07:06:07.517Z,17.84
2019-02-06T07:08:39.851Z,17.84
2019-02-06T07:11:12.198Z,17.83
2019-02-06T07:13:44.542Z,17.86
2019-02-06T07:16:17.212Z,17.87
2019-02-06T07:18:49.434Z,17.87
2019-02-06T07:21:21.597Z,17.85
2019-02-06T07:23:53.864Z,17.86
2019-02-06T07:26:26.045Z,17.88
2019-02-06T07:28:58.428Z,17.87
2019-02-06T07:31:30.879Z,17.86
2019-02-06T07:34:03.281Z,17.85
2019-02-06T07:36:35.601Z,17.84
2019-02-06T07:39:09.731Z,17.84
2019-02-06T07:41:41.928Z,17.84
2019-02-06T07:44:15.844Z,17.84
2019-02-06T07:46:48.127Z,17.85
2019-02-06T07:49:20.250Z,17.87
2019-02-06T07:51:52.973Z,17.88
2019-02-06T07:54:25.083Z,17.88
2019-02-06T07:56:57.521Z,17.88
2019-02-06T07:59:30.014Z,17.91
2019-02-06T08:02:02.228Z,17.92
2019-02-06T08:04:35.036Z,17.91
2019-02-06T08:07:08.390Z,17.89
2019-02-06T08:09:40.831Z,17.87
2019-02-06T08:12:13.113Z,17.87
2019-02-06T08:14:46.978Z,17.88
2019-02-06T08:17:19.269Z,17.87
2019-02-06T08:19:51.447Z,17.88
2019-02-06T08:22:23.505Z,17.87
2019-02-06T08:24:55.750Z,17.86
2019-02-06T08:27:27.800Z,17.86
2019-02-06T08:30:00.324Z,17.87
2019-02-06T08:32:32.333Z,17.86
2019-02-06T08:35:04.732Z,17.87
2019-02-06T08:37:37.944Z,17.88
2019-02-06T08:40:10.333Z,17.89
2019-02-06T08:42:42.422Z,17.89
2019-02-06T08:45:15.377Z,17.88
2019-02-06T08:47:47.552Z,17.90
2019-02-06T08:50:19.837Z,17.89
2019-02-06T08:52:53.839Z,17.91
2019-02-06T08:55:27.126Z,17.91
2019-02-06T08:57:59.359Z,17.91
2019-02-06T09:00:35.188Z,17.93
2019-02-06T09:03:07.645Z,17.93
2019-02-06T09:05:39.928Z,17.94
2019-02-06T09:08:12.067Z,17.94
2019-02-06T09:10:44.279Z,17.94
2019-02-06T09:13:16.821Z,17.94
2019-02-06T09:15:49.621Z,17.94
2019-02-06T09:18:21.925Z,17.96
2019-02-06T09:20:54.083Z,17.95
2019-02-06T09:23:26.267Z,17.95
2019-02-06T09:25:58.880Z,17.95
2019-02-06T09:28:31.523Z,17.95
2019-02-06T09:31:03.774Z,17.98
2019-02-06T09:33:36.181Z,17.99
2019-02-06T09:36:08.414Z,17.99
2019-02-06T09:38:40.513Z,17.98
2019-02-06T09:41:13.060Z,17.97
2019-02-06T09:43:46.461Z,17.98
2019-02-06T09:46:20.083Z,17.99
2019-02-06T09:48:52.634Z,17.99
2019-02-06T09:51:25.233Z,18.00
2019-02-06T09:53:57.711Z,18.00
2019-02-06T09:56:30.964Z,18.00
2019-02-06T09:59:03.315Z,17.99
2019-02-06T10:01:35.700Z,18.00
2019-02-06T10:04:08.351Z,18.01
2019-02-06T10:06:40.526Z,18.01
2019-02-06T10:09:22.626Z,18.01
2019-02-06T10:11:46.625Z,18.02
2019-02-06T10:14:19.057Z,18.03
2019-02-06T10:16:51.719Z,18.03
2019-02-06T10:19:23.971Z,18.03
2019-02-06T10:21:57.213Z,18.18
2019-02-06T10:24:32.152Z,18.09
2019-02-06T10:27:04.638Z,18.05
2019-02-06T10:29:38.739Z,18.06
2019-02-06T10:32:10.802Z,18.04
2019-02-06T10:34:42.971Z,18.06
2019-02-06T10:37:15.085Z,18.05
2019-02-06T10:39:47.481Z,18.05
2019-02-06T10:42:19.563Z,18.06
2019-02-06T10:44:51.622Z,18.06
2019-02-06T10:47:24.084Z,18.06
2019-02-06T10:49:56.413Z,18.07
2019-02-06T10:52:28.670Z,18.07
2019-02-06T10:55:00.712Z,18.07
2019-02-06T10:57:32.903Z,18.06
2019-02-06T11:00:04.901Z,18.07
2019-02-06T11:02:46.956Z,18.09
2019-02-06T11:05:19.338Z,18.08
2019-02-06T11:07:51.376Z,18.09
2019-02-06T11:10:25.597Z,18.09
2019-02-06T11:12:58.149Z,18.09
2019-02-06T11:15:30.135Z,18.11
2019-02-06T11:18:02.477Z,18.09
2019-02-06T11:20:34.559Z,18.11
2019-02-06T11:23:06.646Z,18.11
2019-02-06T11:25:40.156Z,18.11
2019-02-06T11:28:12.433Z,18.12
2019-02-06T11:30:44.423Z,18.12
2019-02-06T11:33:16.414Z,18.12
2019-02-06T11:35:48.726Z,18.13
2019-02-06T11:38:20.910Z,18.13
2019-02-06T11:40:52.969Z,18.14
2019-02-06T11:43:24.950Z,18.15
2019-02-06T11:45:57.099Z,18.15
2019-02-06T11:48:29.101Z,18.16
2019-02-06T11:51:01.702Z,18.16
2019-02-06T11:53:34.102Z,18.16
2019-02-06T11:56:06.437Z,18.17
2019-02-06T11:58:38.633Z,18.17
2019-02-06T12:01:23.582Z,18.18
2019-02-06T12:03:56.359Z,18.18
2019-02-06T12:06:28.750Z,18.19
2019-02-06T12:09:01.083Z,18.19
2019-02-06T12:11:34.904Z,18.19
2019-02-06T12:14:06.961Z,18.19
2019-02-06T12:16:39.639Z,18.21
2019-02-06T12:19:11.641Z,18.20
2019-02-06T12:21:43.915Z,18.21
2019-02-06T12:24:17.031Z,18.21
2019-02-06T12:26:48.995Z,18.23
2019-02-06T12:29:21.346Z,18.23
2019-02-06T12:31:53.614Z,18.22
2019-02-06T12:34:25.659Z,18.24
2019-02-06T12:36:57.920Z,18.25
2019-02-06T12:39:30.118Z,18.26
2019-02-06T12:42:02.623Z,18.27
2019-02-06T12:44:34.981Z,18.29
2019-02-06T12:47:07.149Z,18.30
2019-02-06T12:49:39.255Z,18.33
2019-02-06T12:52:11.435Z,18.31
2019-02-06T12:54:43.484Z,18.31
2019-02-06T12:57:15.709Z,18.32
2019-02-06T12:59:47.826Z,18.33
2019-02-06T13:02:19.984Z,18.32
2019-02-06T13:04:52.374Z,18.32
2019-02-06T13:07:24.487Z,18.32
2019-02-06T13:09:56.656Z,18.33
2019-02-06T13:12:30.847Z,18.33
2019-02-06T13:15:02.908Z,18.34
2019-02-06T13:17:35.150Z,18.35
2019-02-06T13:20:10.884Z,18.35
2019-02-06T13:22:44.128Z,18.35
2019-02-06T13:25:16.257Z,18.36
2019-02-06T13:27:48.479Z,18.36
2019-02-06T13:30:24.719Z,18.37
2019-02-06T13:32:56.814Z,18.37
2019-02-06T13:35:29.029Z,18.37
2019-02-06T13:38:01.324Z,18.36
2019-02-06T13:40:44.754Z,18.38
2019-02-06T13:43:07.476Z,18.41
2019-02-06T13:45:44.047Z,18.40
2019-02-06T13:48:16.234Z,18.42
2019-02-06T13:50:48.474Z,18.42
2019-02-06T13:53:20.564Z,18.41
2019-02-06T13:55:53.032Z,18.40
2019-02-06T13:58:25.241Z,18.41
2019-02-06T14:00:57.259Z,18.41
2019-02-06T14:03:29.414Z,18.41
2019-02-06T14:06:01.586Z,18.42
2019-02-06T14:08:35.078Z,18.42
2019-02-06T14:11:08.219Z,18.43
2019-02-06T14:13:40.415Z,18.42
2019-02-06T14:16:12.654Z,18.44
2019-02-06T14:18:44.874Z,18.43
2019-02-06T14:21:17.115Z,18.42
2019-02-06T14:24:08.003Z,18.43
2019-02-06T14:26:44.148Z,18.43
2019-02-06T14:29:38.280Z,18.44
2019-02-06T14:32:35.252Z,18.44
2019-02-06T14:35:34.862Z,18.44
2019-02-06T14:38:25.742Z,18.44
2019-02-06T14:41:08.841Z,18.44
2019-02-06T14:43:45.678Z,18.45
2019-02-06T14:46:43.763Z,18.45
2019-02-06T14:49:34.184Z,18.46
2019-02-06T14:52:15.128Z,18.46
2019-02-06T14:55:11.729Z,18.47
2019-02-06T14:58:06.773Z,18.48
2019-02-06T15:01:06.775Z,18.47
2019-02-06T15:04:00.138Z,18.46
2019-02-06T15:06:37.268Z,18.47
2019-02-06T15:09:26.548Z,18.48
2019-02-06T15:12:02.216Z,18.48
2019-02-06T15:14:39.724Z,18.48
2019-02-06T15:17:33.382Z,18.48
2019-02-06T15:20:22.675Z,18.49
2019-02-06T15:23:33.183Z,18.48
2019-02-06T15:26:12.524Z,18.49
2019-02-06T15:29:12.807Z,18.51
2019-02-06T15:32:06.451Z,18.51
2019-02-06T15:35:09.390Z,18.53
2019-02-06T15:38:01.028Z,18.55
2019-02-06T15:40:45.847Z,18.54
2019-02-06T15:43:31.638Z,18.57
2019-02-06T15:46:13.701Z,18.57
2019-02-06T15:49:05.898Z,18.59
2019-02-06T15:52:11.960Z,18.66
2019-02-06T15:55:08.494Z,18.73
2019-02-06T15:57:53.660Z,18.82
2019-02-06T16:00:49.736Z,18.90
2019-02-06T16:03:55.971Z,18.95
2019-02-06T16:06:51.529Z,18.99
2019-02-06T16:09:27.660Z,19.04
2019-02-06T16:12:16.602Z,19.07
2019-02-06T16:14:54.708Z,19.09
2019-02-06T16:17:58.108Z,19.11
2019-02-06T16:20:52.840Z,19.13
2019-02-06T16:23:42.129Z,19.13
2019-02-06T16:26:37.478Z,19.18
2019-02-06T16:29:34.667Z,19.23
2019-02-06T16:32:16.159Z,19.23
2019-02-06T16:34:57.796Z,19.25
2019-02-06T16:37:55.366Z,19.29
2019-02-06T16:40:49.514Z,19.31
2019-02-06T16:43:46.584Z,19.31
2019-02-06T16:46:46.572Z,19.32
2019-02-06T16:49:25.350Z,19.18
2019-02-06T16:52:14.827Z,19.07
2019-02-06T16:55:21.392Z,19.03
2019-02-06T16:58:16.294Z,19.01
2019-02-06T17:01:11.600Z,18.98
2019-02-06T17:03:58.890Z,18.97
2019-02-06T17:06:49.573Z,19.01
2019-02-06T17:09:39.251Z,19.02
2019-02-06T17:12:26.084Z,18.99
2019-02-06T17:15:11.514Z,18.99
2019-02-06T17:18:08.740Z,19.00
2019-02-06T17:20:58.396Z,19.05
2019-02-06T17:23:35.258Z,19.27
2019-02-06T17:26:34.928Z,19.39
2019-02-06T17:29:12.849Z,19.45
2019-02-06T17:32:03.640Z,19.56
2019-02-06T17:35:03.335Z,19.55
2019-02-06T17:37:41.346Z,19.63
2019-02-06T17:40:38.383Z,19.61
2019-02-06T17:43:29.287Z,19.72
2019-02-06T17:46:06.674Z,19.72
2019-02-06T17:48:49.939Z,19.62
2019-02-06T17:51:33.845Z,19.61
2019-02-06T17:54:14.995Z,19.58
2019-02-06T17:56:47.258Z,19.63
2019-02-06T17:59:19.527Z,19.59
2019-02-06T18:01:55.859Z,19.59
2019-02-06T18:04:33.092Z,19.64
2019-02-06T18:07:06.645Z,19.51
2019-02-06T18:09:39.086Z,19.36
2019-02-06T18:12:11.213Z,19.33
2019-02-06T18:14:43.357Z,19.26
2019-02-06T18:17:15.652Z,19.24
2019-02-06T18:19:47.844Z,19.22
2019-02-06T18:22:22.448Z,19.21
2019-02-06T18:24:53.954Z,19.18
2019-02-06T18:27:25.963Z,19.20
2019-02-06T18:30:01.422Z,19.17
2019-02-06T18:32:33.765Z,19.18
2019-02-06T18:35:05.891Z,19.17
2019-02-06T18:37:43.211Z,19.16
2019-02-06T18:40:12.489Z,19.14
2019-02-06T18:42:44.618Z,19.16
2019-02-06T18:45:17.162Z,19.13
2019-02-06T18:47:49.347Z,19.22
2019-02-06T18:50:22.452Z,19.20
2019-02-06T18:52:55.482Z,19.15
2019-02-06T18:55:27.526Z,19.14
2019-02-06T18:57:59.853Z,19.11
2019-02-06T19:00:33.098Z,19.10
2019-02-06T19:03:06.261Z,19.10
2019-02-06T19:05:38.714Z,19.09
2019-02-06T19:08:11.938Z,19.07
2019-02-06T19:10:44.225Z,19.06
2019-02-06T19:13:16.540Z,19.06
2019-02-06T19:15:56.178Z,19.04
2019-02-06T19:18:22.385Z,19.05
2019-02-06T19:20:55.751Z,19.06
2019-02-06T19:23:29.798Z,19.05
2019-02-06T19:26:02.265Z,19.05
2019-02-06T19:28:35.547Z,19.04
2019-02-06T19:31:08.107Z,19.04
2019-02-06T19:33:40.293Z,19.04
2019-02-06T19:36:12.716Z,19.04
2019-02-06T19:38:46.090Z,19.04
2019-02-06T19:41:18.679Z,19.08
2019-02-06T19:43:50.931Z,19.05
2019-02-06T19:46:23.224Z,19.06
2019-02-06T19:48:56.661Z,19.08
2019-02-06T19:51:29.269Z,19.06
2019-02-06T19:54:01.346Z,19.06
2019-02-06T19:56:33.644Z,19.06
2019-02-06T19:59:05.949Z,19.07
2019-02-06T20:01:38.326Z,19.08
2019-02-06T20:04:10.656Z,19.05
2019-02-06T20:06:42.767Z,19.09
2019-02-06T20:09:15.374Z,19.06
2019-02-06T20:11:47.682Z,19.05
2019-02-06T20:14:19.909Z,19.06
2019-02-06T20:16:53.195Z,19.07
2019-02-06T20:19:25.644Z,19.08
2019-02-06T20:21:57.920Z,19.05
2019-02-06T20:24:30.062Z,19.03
2019-02-06T20:27:02.651Z,19.02
2019-02-06T20:29:34.714Z,19.02
2019-02-06T20:32:07.104Z,19.00
2019-02-06T20:34:39.365Z,19.02
2019-02-06T20:37:12.001Z,19.03
2019-02-06T20:39:44.296Z,19.01
2019-02-06T20:42:16.720Z,19.03
2019-02-06T20:44:50.580Z,19.02
2019-02-06T20:47:22.839Z,19.03
2019-02-06T20:49:55.048Z,19.02
2019-02-06T20:52:27.339Z,19.01
2019-02-06T20:54:59.546Z,19.00
2019-02-06T20:57:31.606Z,19.00
2019-02-06T21:00:04.101Z,19.01
2019-02-06T21:02:36.353Z,19.00
2019-02-06T21:05:09.068Z,19.00
2019-02-06T21:07:41.260Z,18.99
2019-02-06T21:10:15.207Z,19.00
2019-02-06T21:12:47.640Z,19.00
2019-02-06T21:15:19.839Z,18.99
2019-02-06T21:17:53.091Z,18.98
2019-02-06T21:20:25.296Z,18.99
2019-02-06T21:22:57.543Z,18.98
2019-02-06T21:25:29.846Z,18.99
2019-02-06T21:28:02.039Z,18.99
2019-02-06T21:30:35.034Z,18.98
2019-02-06T21:33:07.277Z,18.98
2019-02-06T21:35:39.530Z,18.99
2019-02-06T21:38:11.737Z,18.98
2019-02-06T21:40:43.748Z,18.98
2019-02-06T21:43:16.077Z,18.99
2019-02-06T21:45:48.269Z,18.99
2019-02-06T21:48:22.391Z,19.00
2019-02-06T21:50:54.763Z,18.98
2019-02-06T21:53:26.945Z,18.98
2019-02-06T21:55:59.173Z,18.98
2019-02-06T21:58:31.379Z,18.99
2019-02-06T22:01:03.856Z,18.98
2019-02-06T22:03:35.922Z,18.98
2019-02-06T22:06:08.091Z,18.99
2019-02-06T22:08:40.247Z,18.98
2019-02-06T22:11:12.570Z,18.96
2019-02-06T22:13:54.713Z,18.97
2019-02-06T22:16:18.410Z,18.97
2019-02-06T22:18:50.670Z,18.97
2019-02-06T22:21:22.846Z,18.96
2019-02-06T22:23:55.468Z,18.96
2019-02-06T22:26:27.633Z,18.96
2019-02-06T22:28:59.998Z,18.96
2019-02-06T22:31:32.230Z,18.95
2019-02-06T22:34:04.541Z,18.94
2019-02-06T22:36:36.914Z,18.92
2019-02-06T22:39:12.863Z,18.92
2019-02-06T22:41:44.924Z,18.94
2019-02-06T22:44:17.137Z,18.93
2019-02-06T22:46:49.278Z,18.92
2019-02-06T22:49:21.727Z,18.92
2019-02-06T22:51:53.803Z,18.91
2019-02-06T22:54:26.149Z,18.91
2019-02-06T22:56:58.420Z,18.90
2019-02-06T22:59:30.809Z,18.90
2019-02-06T23:02:03.026Z,18.92
2019-02-06T23:04:35.357Z,18.91
2019-02-06T23:07:07.551Z,18.89
2019-02-06T23:09:39.942Z,18.89
2019-02-06T23:12:12.521Z,18.91
2019-02-06T23:14:44.742Z,18.90
2019-02-06T23:17:16.954Z,18.90
2019-02-06T23:19:49.151Z,18.90
2019-02-06T23:22:21.317Z,18.89
2019-02-06T23:24:53.479Z,18.90
2019-02-06T23:27:25.681Z,18.90
2019-02-06T23:29:57.869Z,18.90
2019-02-06T23:32:29.910Z,18.88
2019-02-06T23:35:02.124Z,18.90
2019-02-06T23:37:34.283Z,18.88
2019-02-06T23:40:07.847Z,18.88
2019-02-06T23:42:40.040Z,18.88
2019-02-06T23:45:12.346Z,18.88
2019-02-06T23:47:44.810Z,18.89
2019-02-06T23:50:16.960Z,18.89
2019-02-06T23:52:49.231Z,18.86
2019-02-06T23:55:21.496Z,18.87
2019-02-06T23:57:53.768Z,18.87
